createdAt,value
2018-09-29T00:01:35.849Z,100351.33
2018-09-29T00:04:39.033Z,100348.09
2018-09-29T00:07:42.174Z,100350.58
2018-09-29T00:10:45.407Z,100352.24
2018-09-29T00:13:48.566Z,100349.50
2018-09-29T00:16:51.661Z,100346.35
2018-09-29T00:19:54.850Z,100351.41
2018-09-29T00:22:58.053Z,100353.55
2018-09-29T00:26:01.201Z,100362.35
2018-09-29T00:29:04.320Z,100355.28
2018-09-29T00:32:07.409Z,100358.23
2018-09-29T00:35:10.609Z,100357.16
2018-09-29T00:38:13.736Z,100366.29
2018-09-29T00:41:16.875Z,100367.98
2018-09-29T00:44:20.070Z,100365.45
2018-09-29T00:47:23.163Z,100366.41
2018-09-29T00:50:26.359Z,100362.42
2018-09-29T00:53:29.473Z,100360.73
2018-09-29T00:56:32.608Z,100363.25
2018-09-29T00:59:35.867Z,100357.01
2018-09-29T01:02:38.999Z,100358.20
2018-09-29T01:05:42.110Z,100350.05
2018-09-29T01:08:45.305Z,100347.77
2018-09-29T01:11:48.398Z,100350.98
2018-09-29T01:14:51.625Z,100346.33
2018-09-29T01:17:54.789Z,100353.48
2018-09-29T01:20:57.909Z,100359.61
2018-09-29T01:24:01.094Z,100360.91
2018-09-29T01:27:04.252Z,100365.23
2018-09-29T01:30:07.596Z,100357.45
2018-09-29T01:33:10.785Z,100354.66
2018-09-29T01:36:14.264Z,100350.39
2018-09-29T01:39:17.482Z,100349.72
2018-09-29T01:42:20.618Z,100337.66
2018-09-29T01:45:23.768Z,100330.52
2018-09-29T01:48:26.859Z,100323.89
2018-09-29T01:51:30.018Z,100325.09
2018-09-29T01:54:33.227Z,100325.81
2018-09-29T01:57:36.392Z,100325.19
2018-09-29T02:00:39.613Z,100333.33
2018-09-29T02:03:42.737Z,100327.47
2018-09-29T02:06:45.906Z,100332.70
2018-09-29T02:09:49.306Z,100340.00
2018-09-29T02:12:52.442Z,100340.61
2018-09-29T02:15:55.583Z,100342.41
2018-09-29T02:18:58.774Z,100340.77
2018-09-29T02:22:01.951Z,100340.05
2018-09-29T02:25:05.209Z,100338.70
2018-09-29T02:28:08.345Z,100343.57
2018-09-29T02:31:11.461Z,100341.91
2018-09-29T02:34:14.565Z,100344.14
2018-09-29T02:37:20.142Z,100340.41
2018-09-29T02:40:23.652Z,100343.78
2018-09-29T02:43:26.838Z,100339.68
2018-09-29T02:46:30.011Z,100340.31
2018-09-29T02:49:33.140Z,100333.65
2018-09-29T02:52:36.575Z,100335.57
2018-09-29T02:55:39.750Z,100330.34
2018-09-29T02:58:42.900Z,100329.59
2018-09-29T03:01:47.055Z,100328.48
2018-09-29T03:04:50.226Z,100325.30
2018-09-29T03:07:53.338Z,100329.80
2018-09-29T03:10:56.482Z,100329.19
2018-09-29T03:13:59.588Z,100325.50
2018-09-29T03:17:02.721Z,100331.95
2018-09-29T03:20:05.734Z,100327.09
2018-09-29T03:23:08.945Z,100333.20
2018-09-29T03:26:12.143Z,100329.80
2018-09-29T03:29:15.322Z,100329.64
2018-09-29T03:32:18.572Z,100337.11
2018-09-29T03:35:21.739Z,100341.23
2018-09-29T03:38:24.867Z,100337.05
2018-09-29T03:41:28.066Z,100336.22
2018-09-29T03:44:31.438Z,100336.42
2018-09-29T03:47:34.669Z,100336.65
2018-09-29T03:50:37.794Z,100338.31
2018-09-29T03:53:41.053Z,100334.00
2018-09-29T03:56:44.166Z,100333.64
2018-09-29T03:59:47.364Z,100334.97
2018-09-29T04:02:50.557Z,100340.17
2018-09-29T04:05:53.769Z,100344.17
2018-09-29T04:08:56.877Z,100347.89
2018-09-29T04:12:00.122Z,100350.78
2018-09-29T04:15:03.641Z,100351.28
2018-09-29T04:18:07.861Z,100349.02
2018-09-29T04:21:11.077Z,100345.63
2018-09-29T04:24:14.745Z,100344.03
2018-09-29T04:27:17.933Z,100350.48
2018-09-29T04:30:21.070Z,100355.30
2018-09-29T04:33:24.265Z,100354.01
2018-09-29T04:36:27.406Z,100345.14
2018-09-29T04:39:30.623Z,100350.29
2018-09-29T04:42:33.825Z,100341.34
2018-09-29T04:45:37.012Z,100341.72
2018-09-29T04:48:40.117Z,100343.59
2018-09-29T04:51:43.288Z,100337.80
2018-09-29T04:54:46.481Z,100340.11
2018-09-29T04:57:50.597Z,100344.73
2018-09-29T05:00:53.737Z,100335.63
2018-09-29T05:03:57.876Z,100332.82
2018-09-29T05:07:01.120Z,100338.26
2018-09-29T05:10:05.444Z,100348.15
2018-09-29T05:13:08.602Z,100347.92
2018-09-29T05:16:11.857Z,100353.97
2018-09-29T05:19:15.130Z,100352.52
2018-09-29T05:22:18.261Z,100351.92
2018-09-29T05:25:22.534Z,100358.70
2018-09-29T05:28:25.665Z,100357.31
2018-09-29T05:31:28.955Z,100359.80
2018-09-29T05:34:32.130Z,100365.25
2018-09-29T05:37:35.302Z,100360.20
2018-09-29T05:40:38.580Z,100372.48
2018-09-29T05:43:41.703Z,100381.55
2018-09-29T05:46:44.853Z,100382.30
2018-09-29T05:49:47.975Z,100381.07
2018-09-29T05:52:51.372Z,100382.23
2018-09-29T05:55:54.691Z,100388.20
2018-09-29T05:58:59.201Z,100387.08
2018-09-29T06:02:02.717Z,100383.48
2018-09-29T06:05:06.049Z,100387.73
2018-09-29T06:08:09.227Z,100389.33
2018-09-29T06:11:13.350Z,100387.55
2018-09-29T06:14:17.700Z,100389.19
2018-09-29T06:17:20.856Z,100393.11
2018-09-29T06:20:24.159Z,100394.24
2018-09-29T06:23:28.293Z,100388.89
2018-09-29T06:26:32.502Z,100391.12
2018-09-29T06:29:35.809Z,100382.42
2018-09-29T06:32:40.189Z,100393.83
2018-09-29T06:35:43.442Z,100388.22
2018-09-29T06:38:46.610Z,100384.76
2018-09-29T06:41:49.804Z,100381.52
2018-09-29T06:44:54.426Z,100388.02
2018-09-29T06:47:58.064Z,100388.15
2018-09-29T06:51:02.351Z,100387.39
2018-09-29T06:54:06.370Z,100399.69
2018-09-29T06:57:09.657Z,100397.06
2018-09-29T07:00:12.963Z,100389.80
2018-09-29T07:03:16.169Z,100386.28
2018-09-29T07:06:19.393Z,100392.16
2018-09-29T07:09:22.536Z,100394.08
2018-09-29T07:12:25.898Z,100399.00
2018-09-29T07:15:29.149Z,100400.27
2018-09-29T07:18:32.311Z,100400.52
2018-09-29T07:21:35.558Z,100401.20
2018-09-29T07:24:38.746Z,100397.20
2018-09-29T07:27:41.889Z,100399.09
2018-09-29T07:30:45.122Z,100400.15
2018-09-29T07:33:48.308Z,100392.63
2018-09-29T07:38:01.548Z,100390.07
2018-09-29T07:41:04.770Z,100388.30
2018-09-29T07:44:08.342Z,100389.46
2018-09-29T07:47:11.545Z,100386.23
2018-09-29T07:50:14.713Z,100379.42
2018-09-29T07:53:17.838Z,100372.67
2018-09-29T07:56:21.056Z,100377.29
2018-09-29T07:59:24.541Z,100375.29
2018-09-29T08:02:27.675Z,100371.84
2018-09-29T08:05:30.757Z,100375.89
2018-09-29T08:08:33.882Z,100376.19
2018-09-29T08:11:37.029Z,100367.09
2018-09-29T08:14:40.288Z,100366.50
2018-09-29T08:17:43.506Z,100363.78
2018-09-29T08:20:46.651Z,100364.81
2018-09-29T08:23:49.884Z,100366.58
2018-09-29T08:26:52.988Z,100369.02
2018-09-29T08:29:56.113Z,100370.95
2018-09-29T08:32:59.254Z,100371.08
2018-09-29T08:36:02.382Z,100370.86
2018-09-29T08:39:07.681Z,100362.86
2018-09-29T08:42:10.904Z,100354.80
2018-09-29T08:45:14.048Z,100350.07
2018-09-29T08:48:17.166Z,100352.41
2018-09-29T08:51:20.299Z,100338.86
2018-09-29T08:54:23.553Z,100333.14
2018-09-29T08:57:26.690Z,100341.03
2018-09-29T09:00:29.957Z,100340.37
2018-09-29T09:03:33.238Z,100335.89
2018-09-29T09:06:36.429Z,100333.89
2018-09-29T09:09:39.617Z,100329.67
2018-09-29T09:12:42.810Z,100337.20
2018-09-29T09:15:46.106Z,100338.83
2018-09-29T09:18:49.244Z,100332.19
2018-09-29T09:21:52.324Z,100328.09
2018-09-29T09:24:55.458Z,100323.92
2018-09-29T09:27:58.590Z,100314.14
2018-09-29T09:31:01.749Z,100314.38
2018-09-29T09:34:04.958Z,100307.91
2018-09-29T09:37:08.107Z,100301.14
2018-09-29T09:40:11.346Z,100308.91
2018-09-29T09:43:14.469Z,100304.33
2018-09-29T09:46:17.599Z,100301.53
2018-09-29T09:49:20.737Z,100306.09
2018-09-29T09:52:23.862Z,100291.47
2018-09-29T09:55:28.034Z,100285.64
2018-09-29T09:58:31.217Z,100284.16
2018-09-29T10:01:39.025Z,100279.72
2018-09-29T10:04:42.183Z,100273.16
2018-09-29T10:07:45.397Z,100273.41
2018-09-29T10:10:48.466Z,100262.59
2018-09-29T10:13:51.680Z,100267.87
2018-09-29T10:16:54.826Z,100265.16
2018-09-29T10:19:57.970Z,100257.31
2018-09-29T10:23:01.077Z,100260.33
2018-09-29T10:26:04.288Z,100247.69
2018-09-29T10:29:07.584Z,100244.83
2018-09-29T10:32:10.741Z,100240.34
2018-09-29T10:35:13.957Z,100236.55
2018-09-29T10:38:17.201Z,100228.35
2018-09-29T10:41:20.342Z,100236.67
2018-09-29T10:44:23.473Z,100226.05
2018-09-29T10:47:27.721Z,100225.07
2018-09-29T10:50:30.868Z,100227.47
2018-09-29T10:53:33.965Z,100220.78
2018-09-29T10:56:37.128Z,100211.84
2018-09-29T10:59:40.338Z,100215.16
2018-09-29T11:02:43.603Z,100207.95
2018-09-29T11:05:46.660Z,100219.48
2018-09-29T11:08:49.794Z,100208.58
2018-09-29T11:11:53.998Z,100188.61
2018-09-29T11:14:58.267Z,100196.62
2018-09-29T11:18:01.518Z,100210.75
2018-09-29T11:21:04.864Z,100172.55
2018-09-29T11:24:08.052Z,100164.57
2018-09-29T11:27:11.221Z,100177.28
2018-09-29T11:30:14.445Z,100166.64
2018-09-29T11:33:17.639Z,100146.03
2018-09-29T11:36:20.768Z,100153.33
2018-09-29T11:39:24.045Z,100124.05
2018-09-29T11:42:27.133Z,100075.72
2018-09-29T11:45:30.392Z,100102.74
2018-09-29T11:48:33.559Z,100111.42
2018-09-29T11:51:36.821Z,100074.46
2018-09-29T11:54:40.065Z,100068.86
2018-09-29T11:57:43.317Z,100051.38
2018-09-29T12:00:46.645Z,100082.36
2018-09-29T12:03:50.818Z,100057.74
2018-09-29T12:06:53.906Z,100043.90
2018-09-29T12:09:59.093Z,100067.34
2018-09-29T12:13:02.779Z,100092.78
2018-09-29T12:16:07.048Z,100032.33
2018-09-29T12:19:10.321Z,100034.73
2018-09-29T12:22:13.565Z,100078.97
2018-09-29T12:25:16.826Z,100057.20
2018-09-29T12:28:19.974Z,100022.09
2018-09-29T12:31:23.214Z,100012.66
2018-09-29T12:34:26.364Z,99985.83
2018-09-29T12:37:29.541Z,99983.02
2018-09-29T12:40:32.615Z,100013.97
2018-09-29T12:43:36.118Z,99949.46
2018-09-29T12:46:39.241Z,99966.69
2018-09-29T12:49:42.341Z,99979.18
2018-09-29T12:52:45.486Z,100028.59
2018-09-29T12:55:48.678Z,100089.20
2018-09-29T12:58:51.835Z,100099.34
2018-09-29T13:01:54.995Z,100023.92
2018-09-29T13:04:58.274Z,99984.20
2018-09-29T13:08:01.458Z,100004.89
2018-09-29T13:11:04.804Z,99948.93
2018-09-29T13:14:07.899Z,99929.92
2018-09-29T13:17:12.173Z,99902.38
2018-09-29T13:20:15.480Z,99927.92
2018-09-29T13:23:18.694Z,99976.60
2018-09-29T13:26:21.943Z,99937.72
2018-09-29T13:29:25.136Z,99920.64
2018-09-29T13:32:28.315Z,99937.70
2018-09-29T13:35:31.469Z,99876.58
2018-09-29T13:38:34.960Z,99827.98
2018-09-29T13:41:38.187Z,99824.73
2018-09-29T13:44:41.403Z,99826.23
2018-09-29T13:47:44.669Z,99817.66
2018-09-29T13:50:47.853Z,99759.66
2018-09-29T13:53:51.045Z,99813.72
2018-09-29T13:56:54.249Z,99858.42
2018-09-29T13:59:57.453Z,99904.56
2018-09-29T14:03:00.644Z,99874.50
2018-09-29T14:06:03.849Z,99828.50
2018-09-29T14:09:08.963Z,99832.87
2018-09-29T14:12:12.161Z,99794.67
2018-09-29T14:15:15.579Z,99920.22
2018-09-29T14:18:18.757Z,99867.66
2018-09-29T14:21:21.952Z,99836.94
2018-09-29T14:24:25.145Z,99822.48
2018-09-29T14:27:28.345Z,99848.55
2018-09-29T14:30:31.538Z,99777.49
2018-09-29T14:33:34.731Z,99717.64
2018-09-29T14:36:37.895Z,99712.28
2018-09-29T14:39:41.108Z,99722.36
2018-09-29T14:42:44.316Z,99765.50
2018-09-29T14:45:47.516Z,99810.13
2018-09-29T14:48:50.696Z,99806.28
2018-09-29T14:51:53.904Z,99950.85
2018-09-29T14:54:57.196Z,99882.84
2018-09-29T14:58:00.373Z,99847.53
2018-09-29T15:01:03.706Z,99850.87
2018-09-29T15:04:07.079Z,99747.36
2018-09-29T15:07:10.237Z,99574.20
2018-09-29T15:10:13.522Z,99458.67
2018-09-29T15:13:16.641Z,99464.75
2018-09-29T15:16:19.861Z,99519.33
2018-09-29T15:19:23.140Z,99520.30
2018-09-29T15:22:26.368Z,99566.69
2018-09-29T15:25:30.562Z,99693.75
2018-09-29T15:28:33.797Z,99789.64
2018-09-29T15:31:36.961Z,99622.47
2018-09-29T15:34:40.181Z,99569.35
2018-09-29T15:37:43.442Z,99612.43
2018-09-29T15:40:46.597Z,99590.94
2018-09-29T15:43:51.744Z,99586.93
2018-09-29T15:46:55.820Z,99508.52
2018-09-29T15:49:59.961Z,99510.48
2018-09-29T15:53:03.162Z,99613.27
2018-09-29T15:56:06.397Z,99730.44
2018-09-29T15:59:10.449Z,99589.47
2018-09-29T16:02:13.692Z,99623.62
2018-09-29T16:05:16.899Z,99653.27
2018-09-29T16:08:20.110Z,99801.06
2018-09-29T16:11:23.266Z,99889.84
2018-09-29T16:14:26.442Z,99937.00
2018-09-29T16:17:29.738Z,99996.77
2018-09-29T16:20:32.940Z,99992.87
2018-09-29T16:23:36.157Z,99940.06
2018-09-29T16:26:42.610Z,99938.27
2018-09-29T16:29:45.754Z,99951.25
2018-09-29T16:32:49.878Z,99920.50
2018-09-29T16:35:53.569Z,99915.82
2018-09-29T16:38:56.905Z,99949.70
2018-09-29T16:42:00.154Z,99883.30
2018-09-29T16:45:05.430Z,99844.44
2018-09-29T16:48:08.727Z,99844.95
2018-09-29T16:51:11.911Z,99840.59
2018-09-29T16:54:15.118Z,99848.97
2018-09-29T16:57:18.326Z,99854.91
2018-09-29T17:00:21.518Z,99833.48
2018-09-29T17:03:24.793Z,99812.17
2018-09-29T17:06:27.950Z,99794.09
2018-09-29T17:09:31.105Z,99786.95
2018-09-29T17:12:34.464Z,99793.01
2018-09-29T17:15:37.660Z,99791.52
2018-09-29T17:18:40.867Z,99803.36
2018-09-29T17:21:45.083Z,99801.89
2018-09-29T17:24:52.541Z,99806.45
2018-09-29T17:27:59.510Z,99805.33
2018-09-29T17:31:03.159Z,99802.92
2018-09-29T17:34:06.360Z,99802.00
2018-09-29T17:37:09.511Z,99800.62
2018-09-29T17:40:12.847Z,99799.70
2018-09-29T17:43:16.091Z,99803.39
2018-09-29T17:46:19.398Z,99803.33
2018-09-29T17:49:22.798Z,99799.33
2018-09-29T17:52:26.135Z,99801.13
2018-09-29T17:55:30.345Z,99796.11
2018-09-29T17:58:33.625Z,99798.24
2018-09-29T18:01:36.910Z,99803.09
2018-09-29T18:04:43.555Z,99805.11
2018-09-29T18:07:46.785Z,99800.25
2018-09-29T18:25:11.732Z,99800.47
2018-09-29T18:42:23.407Z,99808.44
2018-09-29T23:51:09.085Z,99648.83
2018-09-29T23:54:12.227Z,99651.58
2018-09-29T23:57:15.479Z,99651.44
